createdAt,value
2023-05-02T00:02:25.765Z,6.13
2023-05-02T00:04:53.516Z,7.03
2023-05-02T00:07:21.420Z,7.15
2023-05-02T00:09:48.948Z,6.40
2023-05-02T00:12:16.529Z,6.33
2023-05-02T00:14:44.051Z,6.37
2023-05-02T00:17:20.504Z,5.90
2023-05-02T00:19:48.453Z,8.07
2023-05-02T00:22:15.988Z,5.47
2023-05-02T00:24:43.576Z,7.40
2023-05-02T00:27:11.721Z,6.00
2023-05-02T00:29:39.196Z,7.03
2023-05-02T00:32:07.020Z,7.17
2023-05-02T00:34:34.564Z,6.20
2023-05-02T00:37:02.097Z,7.43
2023-05-02T00:39:29.686Z,6.43
2023-05-02T00:41:58.854Z,6.30
2023-05-02T00:44:26.578Z,7.30
2023-05-02T00:46:55.772Z,6.60
2023-05-02T00:49:23.320Z,6.47
2023-05-02T00:51:50.967Z,7.07
2023-05-02T00:54:18.793Z,8.17
2023-05-02T00:56:47.004Z,6.67
2023-05-02T00:59:15.518Z,9.23
2023-05-02T01:02:12.929Z,7.23
2023-05-02T01:05:04.959Z,7.73
2023-05-02T01:07:47.082Z,6.47
2023-05-02T01:11:12.077Z,6.33
2023-05-02T01:13:42.385Z,7.20
2023-05-02T01:16:13.123Z,6.83
2023-05-02T01:18:43.768Z,9.13
2023-05-02T01:21:12.261Z,7.77
2023-05-02T01:24:16.738Z,6.67
2023-05-02T01:27:18.883Z,7.68
2023-05-02T01:29:49.772Z,6.47
2023-05-02T01:32:21.891Z,6.37
2023-05-02T01:34:52.281Z,8.10
2023-05-02T01:37:21.532Z,6.93
2023-05-02T01:39:51.165Z,7.63
2023-05-02T01:42:21.110Z,6.90
2023-05-02T01:44:50.465Z,6.80
2023-05-02T01:47:19.812Z,5.53
2023-05-02T01:49:48.215Z,8.00
2023-05-02T01:52:16.725Z,5.73
2023-05-02T01:54:45.357Z,6.00
2023-05-02T01:57:14.157Z,6.03
2023-05-02T01:59:44.716Z,7.20
2023-05-02T02:02:14.276Z,8.37
2023-05-02T02:04:44.012Z,6.27
2023-05-02T02:07:14.059Z,6.77
2023-05-02T02:09:41.965Z,7.60
2023-05-02T02:12:42.142Z,6.77
2023-05-02T02:15:27.604Z,5.70
2023-05-02T02:18:09.880Z,6.87
2023-05-02T02:20:39.080Z,8.20
2023-05-02T02:23:08.705Z,7.57
2023-05-02T02:25:37.474Z,6.43
2023-05-02T02:28:06.059Z,8.30
2023-05-02T02:30:34.521Z,11.70
2023-05-02T02:33:02.123Z,7.67
2023-05-02T02:35:37.589Z,7.07
2023-05-02T02:38:23.233Z,7.07
2023-05-02T02:40:59.752Z,6.83
2023-05-02T02:43:48.253Z,8.90
2023-05-02T02:46:43.779Z,7.13
2023-05-02T02:49:49.756Z,6.93
2023-05-02T02:52:48.242Z,7.23
2023-05-02T02:55:54.600Z,7.10
2023-05-02T02:58:39.551Z,7.40
2023-05-02T03:01:14.810Z,6.47
2023-05-02T03:03:44.344Z,9.57
2023-05-02T03:06:12.166Z,7.23
2023-05-02T03:08:41.434Z,12.63
2023-05-02T03:11:12.316Z,7.33
2023-05-02T03:13:40.279Z,9.23
2023-05-02T03:16:23.240Z,7.63
2023-05-02T03:18:50.757Z,7.57
2023-05-02T03:21:18.346Z,8.43
2023-05-02T03:23:45.912Z,7.13
2023-05-02T03:26:13.618Z,7.40
2023-05-02T03:28:41.947Z,8.23
2023-05-02T03:31:09.573Z,8.00
2023-05-02T03:33:40.016Z,9.20
2023-05-02T03:36:07.818Z,8.20
2023-05-02T03:38:35.417Z,7.17
2023-05-02T03:41:07.665Z,7.10
2023-05-02T03:43:35.685Z,6.93
2023-05-02T03:46:09.131Z,7.97
2023-05-02T03:48:40.050Z,7.17
2023-05-02T03:51:09.504Z,7.33
2023-05-02T03:53:42.679Z,8.67
2023-05-02T03:56:10.885Z,9.37
2023-05-02T03:58:49.215Z,7.90
2023-05-02T04:01:20.394Z,9.03
2023-05-02T04:03:52.033Z,6.90
2023-05-02T04:06:22.461Z,8.53
2023-05-02T04:08:58.454Z,8.70
2023-05-02T04:11:28.603Z,8.20
2023-05-02T04:13:56.396Z,9.20
2023-05-02T04:16:24.921Z,8.43
2023-05-02T04:18:52.486Z,8.47
2023-05-02T04:21:20.672Z,9.20
2023-05-02T04:23:48.761Z,8.10
2023-05-02T04:26:16.926Z,13.33
2023-05-02T04:28:53.990Z,6.77
2023-05-02T04:31:21.568Z,10.43
2023-05-02T04:33:49.232Z,8.60
2023-05-02T04:36:22.870Z,7.53
2023-05-02T04:38:50.922Z,7.80
2023-05-02T04:41:19.645Z,7.77
2023-05-02T04:46:20.885Z,8.40
2023-05-02T04:48:48.554Z,8.60
2023-05-02T04:51:17.192Z,9.60
2023-05-02T04:53:47.417Z,8.80
2023-05-02T04:56:15.685Z,8.80
2023-05-02T04:58:43.602Z,9.27
2023-05-02T05:01:13.005Z,9.30
2023-05-02T05:03:41.483Z,9.83
2023-05-02T05:06:10.789Z,8.93
2023-05-02T05:08:38.544Z,9.30
2023-05-02T05:11:06.530Z,8.40
2023-05-02T05:13:34.566Z,11.10
2023-05-02T05:16:02.854Z,7.60
2023-05-02T05:18:40.186Z,8.27
2023-05-02T05:21:10.571Z,10.67
2023-05-02T05:23:38.613Z,9.47
2023-05-02T05:26:17.377Z,9.47
2023-05-02T05:28:48.191Z,8.93
2023-05-02T05:31:17.123Z,11.30
2023-05-02T05:33:48.354Z,10.17
2023-05-02T05:36:17.152Z,10.40
2023-05-02T05:38:44.900Z,9.73
2023-05-02T05:41:12.552Z,10.27
2023-05-02T05:43:44.792Z,10.67
2023-05-02T05:46:12.758Z,9.23
2023-05-02T05:48:40.259Z,12.33
2023-05-02T05:51:07.868Z,10.40
2023-05-02T05:53:35.663Z,11.57
2023-05-02T05:56:13.276Z,11.23
2023-05-02T05:58:46.668Z,11.77
2023-05-02T06:01:15.300Z,12.27
2023-05-02T06:03:43.072Z,12.20
2023-05-02T06:06:10.854Z,10.63
2023-05-02T06:08:38.435Z,13.43
2023-05-02T06:11:12.101Z,16.40
2023-05-02T06:13:39.689Z,12.02
2023-05-02T06:16:08.571Z,14.97
2023-05-02T06:18:36.164Z,13.63
2023-05-02T06:21:05.657Z,12.90
2023-05-02T06:23:33.265Z,14.93
2023-05-02T06:26:03.025Z,12.67
2023-05-02T06:28:31.760Z,14.20
2023-05-02T06:31:04.544Z,18.80
2023-05-02T06:33:33.683Z,15.82
2023-05-02T06:36:02.148Z,15.20
2023-05-02T06:38:30.186Z,15.57
2023-05-02T06:40:57.726Z,17.77
2023-05-02T06:43:25.319Z,17.23
2023-05-02T06:45:54.943Z,15.20
2023-05-02T06:48:22.941Z,17.47
2023-05-02T06:50:53.870Z,21.15
2023-05-02T06:53:21.471Z,22.23
2023-05-02T06:55:49.633Z,18.75
2023-05-02T06:58:17.220Z,16.00
2023-05-02T07:00:44.778Z,17.90
2023-05-02T07:03:12.676Z,20.67
2023-05-02T07:05:40.307Z,19.60
2023-05-02T07:08:09.062Z,20.03
2023-05-02T07:10:37.278Z,18.97
2023-05-02T07:13:04.805Z,17.42
2023-05-02T07:15:32.351Z,17.52
2023-05-02T07:17:59.953Z,21.75
2023-05-02T07:20:27.486Z,18.27
2023-05-02T07:22:55.011Z,22.60
2023-05-02T07:25:22.528Z,20.85
2023-05-02T07:27:50.014Z,20.42
2023-05-02T07:30:17.563Z,19.93
2023-05-02T07:32:45.398Z,22.57
2023-05-02T07:35:12.980Z,23.38
2023-05-02T07:37:40.663Z,21.83
2023-05-02T07:40:09.439Z,23.20
2023-05-02T07:42:37.091Z,22.55
2023-05-02T07:45:05.145Z,24.48
2023-05-02T07:47:32.675Z,21.92
2023-05-02T07:50:00.724Z,26.73
2023-05-02T07:52:28.465Z,27.25
2023-05-02T07:54:56.297Z,26.13
2023-05-02T07:57:24.017Z,26.60
2023-05-02T07:59:51.976Z,26.60
2023-05-02T08:02:20.711Z,25.70
2023-05-02T08:04:49.072Z,26.63
2023-05-02T08:07:17.015Z,24.17
2023-05-02T08:09:44.690Z,26.77
2023-05-02T08:12:12.237Z,27.75
2023-05-02T08:14:40.799Z,28.90
2023-05-02T08:17:08.316Z,28.92
2023-05-02T08:19:35.920Z,28.77
2023-05-02T08:22:03.502Z,29.88
2023-05-02T08:24:31.341Z,26.20
2023-05-02T08:26:58.844Z,28.40
2023-05-02T08:29:26.341Z,25.42
2023-05-02T08:31:53.864Z,25.45
2023-05-02T08:34:21.416Z,28.70
2023-05-02T08:36:48.919Z,28.63
2023-05-02T08:39:17.047Z,25.48
2023-05-02T08:41:44.909Z,29.13
2023-05-02T08:44:12.567Z,29.20
2023-05-02T08:46:43.378Z,29.30
2023-05-02T08:49:11.862Z,26.83
2023-05-02T08:51:42.340Z,30.95
2023-05-02T08:54:10.610Z,29.98
2023-05-02T08:56:38.744Z,25.48
2023-05-02T08:59:07.268Z,30.25
2023-05-02T09:01:36.141Z,29.40
2023-05-02T09:04:04.786Z,29.58
2023-05-02T09:06:32.831Z,31.20
2023-05-02T09:09:01.033Z,27.58
2023-05-02T09:11:29.355Z,25.40
2023-05-02T09:13:58.972Z,27.05
2023-05-02T09:16:28.458Z,28.20
2023-05-02T09:18:58.665Z,26.13
2023-05-02T09:21:40.122Z,22.63
2023-05-02T09:24:21.975Z,27.02
2023-05-02T09:27:00.954Z,29.20
2023-05-02T09:29:36.024Z,24.33
2023-05-02T09:32:06.088Z,19.98
2023-05-02T09:34:34.367Z,22.58
2023-05-02T09:37:03.858Z,22.55
2023-05-02T09:39:31.544Z,25.30
2023-05-02T09:41:59.840Z,25.77
2023-05-02T09:44:37.552Z,25.08
2023-05-02T09:47:06.720Z,23.52
2023-05-02T09:49:46.120Z,24.45
2023-05-02T09:52:23.408Z,22.77
2023-05-02T09:54:52.537Z,24.33
2023-05-02T09:57:20.519Z,22.15
2023-05-02T09:59:58.827Z,26.35
2023-05-02T10:02:30.119Z,21.67
2023-05-02T10:04:58.953Z,21.30
2023-05-02T10:07:27.479Z,22.00
2023-05-02T10:09:58.383Z,21.42
2023-05-02T10:12:30.607Z,21.50
2023-05-02T10:15:03.895Z,22.02
2023-05-02T10:17:34.051Z,19.63
2023-05-02T10:20:05.611Z,17.17
2023-05-02T10:22:36.833Z,20.30
2023-05-02T10:25:04.994Z,20.65
2023-05-02T10:27:33.346Z,21.08
2023-05-02T10:30:04.255Z,22.63
2023-05-02T10:32:34.550Z,21.63
2023-05-02T10:35:07.045Z,21.30
2023-05-02T10:37:38.285Z,22.42
2023-05-02T10:40:14.558Z,21.55
2023-05-02T10:42:47.839Z,20.60
2023-05-02T10:45:35.808Z,27.50
2023-05-02T10:48:27.321Z,24.30
2023-05-02T10:51:01.641Z,25.30
2023-05-02T10:53:38.911Z,23.98
2023-05-02T10:56:18.023Z,23.83
2023-05-02T10:58:48.815Z,23.48
2023-05-02T11:01:28.494Z,26.73
2023-05-02T11:04:01.051Z,25.08
2023-05-02T11:06:31.082Z,24.55
2023-05-02T11:09:17.581Z,28.05
2023-05-02T11:11:46.158Z,25.80
2023-05-02T11:14:39.273Z,28.63
2023-05-02T11:17:10.882Z,27.05
2023-05-02T11:19:38.334Z,23.65
2023-05-02T11:22:18.973Z,23.00
2023-05-02T11:24:48.384Z,23.73
2023-05-02T11:27:31.254Z,23.33
2023-05-02T11:29:59.524Z,25.98
2023-05-02T11:32:49.225Z,23.42
2023-05-02T11:35:26.031Z,21.75
2023-05-02T11:38:05.085Z,23.90
2023-05-02T11:40:32.836Z,22.80
2023-05-02T11:43:01.309Z,23.10
2023-05-02T11:45:39.221Z,24.30
2023-05-02T11:48:08.670Z,25.10
2023-05-02T11:50:50.335Z,25.02
2023-05-02T11:53:29.241Z,25.80
2023-05-02T11:56:02.557Z,28.17
2023-05-02T11:58:34.844Z,23.63
2023-05-02T12:01:16.340Z,25.00
2023-05-02T12:03:45.064Z,25.38
2023-05-02T12:06:20.523Z,24.00
2023-05-02T12:08:49.076Z,23.83
2023-05-02T12:11:17.235Z,21.55
2023-05-02T12:13:50.509Z,23.88
2023-05-02T12:16:19.192Z,21.17
2023-05-02T12:18:48.124Z,23.10
2023-05-02T12:21:17.853Z,20.90
2023-05-02T12:23:45.827Z,21.27
2023-05-02T12:26:21.821Z,20.63
2023-05-02T12:28:58.142Z,19.42
2023-05-02T12:31:28.003Z,24.15
2023-05-02T12:33:57.869Z,22.65
2023-05-02T12:36:25.992Z,23.02
2023-05-02T12:38:57.193Z,24.30
2023-05-02T12:41:35.731Z,20.25
2023-05-02T12:44:04.431Z,17.65
2023-05-02T12:46:32.350Z,19.38
2023-05-02T12:49:12.047Z,18.05
2023-05-02T12:51:40.989Z,17.55
2023-05-02T12:54:08.605Z,20.95
2023-05-02T12:56:40.588Z,19.95
2023-05-02T12:59:09.420Z,17.13
2023-05-02T13:01:36.983Z,18.02
2023-05-02T13:04:05.505Z,16.35
2023-05-02T13:06:33.249Z,19.98
2023-05-02T13:09:01.750Z,18.50
2023-05-02T13:11:29.290Z,19.27
2023-05-02T13:13:56.839Z,16.50
2023-05-02T13:16:24.571Z,17.02
2023-05-02T13:18:52.264Z,14.30
2023-05-02T13:21:19.791Z,15.80
2023-05-02T13:23:51.825Z,17.08
2023-05-02T13:26:19.395Z,20.88
2023-05-02T13:28:46.930Z,14.95
2023-05-02T13:31:14.475Z,18.23
2023-05-02T13:33:42.007Z,15.25
2023-05-02T13:36:09.496Z,15.23
2023-05-02T13:38:37.002Z,17.90
2023-05-02T13:41:05.176Z,15.85
2023-05-02T13:43:32.685Z,14.15
2023-05-02T13:46:00.660Z,13.57
2023-05-02T13:48:28.205Z,13.38
2023-05-02T13:50:55.729Z,13.25
2023-05-02T13:53:23.228Z,15.57
2023-05-02T13:55:50.737Z,14.57
2023-05-02T13:58:18.716Z,13.13
2023-05-02T14:00:47.228Z,11.35
2023-05-02T14:03:14.901Z,10.35
2023-05-02T14:05:43.653Z,12.23
2023-05-02T14:08:12.305Z,13.55
2023-05-02T14:10:39.992Z,13.65
2023-05-02T14:13:07.485Z,14.02
2023-05-02T14:15:35.051Z,12.02
2023-05-02T14:18:02.767Z,10.70
2023-05-02T14:20:30.248Z,11.65
2023-05-02T14:22:57.748Z,14.02
2023-05-02T14:25:25.295Z,13.48
2023-05-02T14:27:52.823Z,13.18
2023-05-02T14:30:20.367Z,13.55
2023-05-02T14:32:47.944Z,12.38
2023-05-02T14:35:15.646Z,15.55
2023-05-02T14:37:44.992Z,13.05
2023-05-02T14:40:13.951Z,11.43
2023-05-02T14:42:42.080Z,11.35
2023-05-02T14:45:11.395Z,10.27
2023-05-02T14:47:38.972Z,10.27
2023-05-02T14:50:07.430Z,9.77
2023-05-02T14:52:35.012Z,10.57
2023-05-02T14:55:02.815Z,9.38
2023-05-02T14:57:30.832Z,12.48
2023-05-02T14:59:58.386Z,9.02
2023-05-02T15:02:26.369Z,8.88
2023-05-02T15:04:53.950Z,5.57
2023-05-02T15:07:21.733Z,6.20
2023-05-02T15:09:49.352Z,6.93
2023-05-02T15:12:16.864Z,5.75
2023-05-02T15:14:44.529Z,10.52
2023-05-02T15:17:12.096Z,4.10
2023-05-02T15:19:39.580Z,4.93
2023-05-02T15:22:07.127Z,4.22
2023-05-02T15:24:34.685Z,3.17
2023-05-02T15:27:03.622Z,5.10
2023-05-02T15:29:31.207Z,4.63
2023-05-02T15:31:58.704Z,4.03
2023-05-02T15:34:26.928Z,4.70
2023-05-02T15:36:56.047Z,5.20
2023-05-02T15:39:26.194Z,4.63
2023-05-02T15:41:53.792Z,5.72
2023-05-02T15:44:21.391Z,4.00
2023-05-02T15:46:49.373Z,5.40
2023-05-02T15:49:17.118Z,5.15
2023-05-02T15:51:44.788Z,3.78
2023-05-02T15:54:12.390Z,5.05
2023-05-02T15:56:39.880Z,4.20
2023-05-02T15:59:07.405Z,4.18
2023-05-02T16:01:34.980Z,4.78
2023-05-02T16:04:02.482Z,3.75
2023-05-02T16:06:30.561Z,2.55
2023-05-02T16:08:58.154Z,3.22
2023-05-02T16:11:25.819Z,5.80
2023-05-02T16:13:53.423Z,3.20
2023-05-02T16:16:21.024Z,2.45
2023-05-02T16:18:48.506Z,3.67
2023-05-02T16:21:16.927Z,3.08
2023-05-02T16:23:44.479Z,3.22
2023-05-02T16:26:12.025Z,4.38
2023-05-02T16:28:39.658Z,3.95
2023-05-02T16:31:11.008Z,3.67
2023-05-02T16:33:39.218Z,2.17
2023-05-02T16:36:07.440Z,4.07
2023-05-02T16:38:36.511Z,4.95
2023-05-02T16:41:06.845Z,3.97
2023-05-02T16:43:34.800Z,3.65
2023-05-02T16:46:05.827Z,3.20
2023-05-02T16:48:34.369Z,3.17
2023-05-02T16:51:03.972Z,4.32
2023-05-02T16:53:32.156Z,2.75
2023-05-02T16:56:00.047Z,3.85
2023-05-02T16:58:29.029Z,4.95
2023-05-02T17:00:58.552Z,3.15
2023-05-02T17:03:26.131Z,4.20
2023-05-02T17:05:53.666Z,3.03
2023-05-02T17:08:22.035Z,3.45
2023-05-02T17:10:50.372Z,3.35
2023-05-02T17:13:17.873Z,2.65
2023-05-02T17:15:45.464Z,3.53
2023-05-02T17:18:12.966Z,3.30
2023-05-02T17:20:41.301Z,4.53
2023-05-02T17:23:09.764Z,4.15
2023-05-02T17:25:38.191Z,4.80
2023-05-02T17:28:06.266Z,6.72
2023-05-02T17:30:33.943Z,5.05
2023-05-02T17:33:01.789Z,4.80
2023-05-02T17:35:29.408Z,6.60
2023-05-02T17:37:57.217Z,5.40
2023-05-02T17:40:24.787Z,6.05
2023-05-02T17:42:52.333Z,6.57
2023-05-02T17:45:19.977Z,6.55
2023-05-02T17:47:47.620Z,7.57
2023-05-02T17:50:15.276Z,5.88
2023-05-02T17:52:42.846Z,8.65
2023-05-02T17:55:10.588Z,8.07
2023-05-02T17:57:38.069Z,6.47
2023-05-02T18:00:07.984Z,5.88
2023-05-02T18:02:39.758Z,6.93
2023-05-02T18:05:07.990Z,5.97
2023-05-02T18:07:35.532Z,6.18
2023-05-02T18:10:05.009Z,6.00
2023-05-02T18:12:33.558Z,7.13
2023-05-02T18:15:02.765Z,8.68
2023-05-02T18:17:31.684Z,5.28
2023-05-02T18:19:59.309Z,5.63
2023-05-02T18:22:27.833Z,6.90
2023-05-02T18:24:55.954Z,5.68
2023-05-02T18:27:23.564Z,5.40
2023-05-02T18:29:51.427Z,5.57
2023-05-02T18:32:18.917Z,5.43
2023-05-02T18:34:46.451Z,5.30
2023-05-02T18:37:14.038Z,5.75
2023-05-02T18:39:41.639Z,5.13
2023-05-02T18:42:10.575Z,5.95
2023-05-02T18:44:38.091Z,6.55
2023-05-02T18:47:05.589Z,5.85
2023-05-02T18:49:33.095Z,6.40
2023-05-02T18:52:00.586Z,6.78
2023-05-02T18:54:29.184Z,5.10
2023-05-02T18:56:56.678Z,7.22
2023-05-02T18:59:24.239Z,5.95
2023-05-02T19:01:52.107Z,7.68
2023-05-02T19:04:19.920Z,5.55
2023-05-02T19:06:47.720Z,5.57
2023-05-02T19:09:15.717Z,5.78
2023-05-02T19:11:43.230Z,8.57
2023-05-02T19:14:11.791Z,7.13
2023-05-02T19:16:41.980Z,7.20
2023-05-02T19:19:09.545Z,6.00
2023-05-02T19:21:37.045Z,5.30
2023-05-02T19:24:04.901Z,7.45
2023-05-02T19:26:32.586Z,6.85
2023-05-02T19:29:00.117Z,6.65
2023-05-02T19:31:27.958Z,8.35
2023-05-02T19:33:55.696Z,8.00
2023-05-02T19:36:24.665Z,6.32
2023-05-02T19:38:53.941Z,7.25
2023-05-02T19:41:22.240Z,6.90
2023-05-02T19:43:50.418Z,6.30
2023-05-02T19:46:18.819Z,8.45
2023-05-02T19:48:46.361Z,10.73
2023-05-02T19:51:14.012Z,6.65
2023-05-02T19:53:41.576Z,9.18
2023-05-02T19:56:09.157Z,8.32
2023-05-02T19:58:36.703Z,6.88
2023-05-02T20:01:04.413Z,7.63
2023-05-02T20:03:32.241Z,6.70
2023-05-02T20:05:59.799Z,8.18
2023-05-02T20:08:28.024Z,9.73
2023-05-02T20:10:56.367Z,8.07
2023-05-02T20:13:23.930Z,7.68
2023-05-02T20:15:53.389Z,7.78
2023-05-02T20:18:21.118Z,7.70
2023-05-02T20:20:48.845Z,6.88
2023-05-02T20:23:16.549Z,7.80
2023-05-02T20:25:44.100Z,7.00
2023-05-02T20:28:11.674Z,8.88
2023-05-02T20:30:39.764Z,7.25
2023-05-02T20:33:15.467Z,7.50
2023-05-02T20:35:45.048Z,9.00
2023-05-02T20:38:12.550Z,6.95
2023-05-02T20:40:40.758Z,9.27
2023-05-02T20:43:08.964Z,7.53
2023-05-02T20:45:36.544Z,6.75
2023-05-02T20:48:04.362Z,6.22
2023-05-02T20:50:32.098Z,8.68
2023-05-02T20:52:59.595Z,6.65
2023-05-02T20:55:27.614Z,5.07
2023-05-02T20:57:55.298Z,6.88
2023-05-02T21:00:23.412Z,6.90
2023-05-02T21:02:51.306Z,10.52
2023-05-02T21:05:18.894Z,8.27
2023-05-02T21:07:46.392Z,8.27
2023-05-02T21:10:14.884Z,9.25
2023-05-02T21:12:42.494Z,10.75
2023-05-02T21:15:10.258Z,7.82
2023-05-02T21:17:39.741Z,6.55
2023-05-02T21:20:09.696Z,7.25
2023-05-02T21:22:37.178Z,6.75
2023-05-02T21:25:05.451Z,7.25
2023-05-02T21:27:32.990Z,8.02
2023-05-02T21:30:00.953Z,7.03
2023-05-02T21:32:29.433Z,7.40
2023-05-02T21:34:56.969Z,8.13
2023-05-02T21:37:24.474Z,8.60
2023-05-02T21:39:52.179Z,9.02
2023-05-02T21:42:19.872Z,6.95
2023-05-02T21:44:47.413Z,7.85
2023-05-02T21:47:15.066Z,9.88
2023-05-02T21:49:42.649Z,7.38
2023-05-02T21:52:10.203Z,5.80
2023-05-02T21:54:37.777Z,6.82
2023-05-02T21:57:05.294Z,8.38
2023-05-02T21:59:32.817Z,8.30
2023-05-02T22:02:00.478Z,7.07
2023-05-02T22:04:28.095Z,9.43
2023-05-02T22:06:55.647Z,7.70
2023-05-02T22:09:23.235Z,7.47
2023-05-02T22:11:50.855Z,7.50
2023-05-02T22:14:18.354Z,10.88
2023-05-02T22:16:46.124Z,7.72
2023-05-02T22:19:17.567Z,7.97
2023-05-02T22:21:45.035Z,8.43
2023-05-02T22:24:12.588Z,7.13
2023-05-02T22:26:40.076Z,7.75
2023-05-02T22:29:07.654Z,8.13
2023-05-02T22:31:35.235Z,6.88
2023-05-02T22:34:02.795Z,6.78
2023-05-02T22:36:31.125Z,6.47
2023-05-02T22:38:58.657Z,5.28
2023-05-02T22:41:26.157Z,6.10
2023-05-02T22:43:53.789Z,5.25
2023-05-02T22:46:21.362Z,5.22
2023-05-02T22:48:49.157Z,5.65
2023-05-02T22:51:16.717Z,8.20
2023-05-02T22:53:44.206Z,6.57
2023-05-02T22:56:11.674Z,6.07
2023-05-02T22:58:39.198Z,5.85
2023-05-02T23:01:06.942Z,5.78
2023-05-02T23:03:34.823Z,7.03
2023-05-02T23:06:02.540Z,4.70
2023-05-02T23:08:30.151Z,5.83
2023-05-02T23:10:58.738Z,9.10
2023-05-02T23:13:26.379Z,5.22
2023-05-02T23:15:54.973Z,5.22
2023-05-02T23:18:23.308Z,7.13
2023-05-02T23:20:51.137Z,7.70
2023-05-02T23:23:18.666Z,5.18
2023-05-02T23:25:46.268Z,4.63
2023-05-02T23:28:13.831Z,7.37
2023-05-02T23:30:41.555Z,4.93
2023-05-02T23:33:09.295Z,6.50
2023-05-02T23:35:36.857Z,7.27
2023-05-02T23:38:10.323Z,5.90
2023-05-02T23:40:37.802Z,5.68
2023-05-02T23:43:07.348Z,6.83
2023-05-02T23:45:34.899Z,6.30
2023-05-02T23:48:02.509Z,6.67
2023-05-02T23:50:31.857Z,8.33
2023-05-02T23:52:59.407Z,7.27
2023-05-02T23:55:27.012Z,6.90
2023-05-02T23:57:54.552Z,6.97
